createdAt,value
2022-11-07T00:01:41.848Z,4.50
2022-11-07T00:04:08.894Z,4.88
2022-11-07T00:06:37.782Z,4.40
2022-11-07T00:09:05.064Z,4.40
2022-11-07T00:11:31.955Z,4.53
2022-11-07T00:13:58.866Z,5.30
2022-11-07T00:16:26.771Z,4.65
2022-11-07T00:18:53.840Z,4.90
2022-11-07T00:21:20.716Z,5.13
2022-11-07T00:23:47.582Z,5.35
2022-11-07T00:26:14.774Z,4.53
2022-11-07T00:28:42.698Z,4.57
2022-11-07T00:31:10.735Z,4.90
2022-11-07T00:33:37.792Z,4.80
2022-11-07T00:36:04.964Z,4.57
2022-11-07T00:38:31.927Z,4.57
2022-11-07T00:41:03.416Z,4.57
2022-11-07T00:43:30.716Z,4.57
2022-11-07T00:45:57.777Z,4.15
2022-11-07T00:48:24.984Z,4.45
2022-11-07T00:50:51.946Z,4.75
2022-11-07T00:53:18.878Z,4.55
2022-11-07T00:55:45.926Z,3.97
2022-11-07T00:58:14.410Z,4.40
2022-11-07T01:00:42.018Z,4.18
2022-11-07T01:03:27.679Z,4.30
2022-11-07T01:05:58.523Z,4.30
2022-11-07T01:08:25.838Z,3.53
2022-11-07T01:10:52.788Z,3.63
2022-11-07T01:13:19.680Z,4.07
2022-11-07T01:15:46.783Z,4.22
2022-11-07T01:18:13.728Z,3.50
2022-11-07T01:20:41.213Z,4.18
2022-11-07T01:23:08.541Z,4.20
2022-11-07T01:25:39.011Z,3.80
2022-11-07T01:28:06.375Z,4.18
2022-11-07T01:30:33.568Z,4.22
2022-11-07T01:33:00.737Z,3.90
2022-11-07T01:35:27.764Z,4.22
2022-11-07T01:37:54.656Z,3.85
2022-11-07T01:40:21.633Z,4.20
2022-11-07T01:42:48.759Z,4.25
2022-11-07T01:45:23.694Z,4.03
2022-11-07T01:47:50.550Z,4.13
2022-11-07T01:50:17.470Z,4.07
2022-11-07T01:52:45.007Z,4.40
2022-11-07T01:55:26.786Z,4.13
2022-11-07T01:58:05.010Z,4.45
2022-11-07T02:00:31.895Z,4.22
2022-11-07T02:03:06.189Z,4.30
2022-11-07T02:05:35.779Z,3.67
2022-11-07T02:08:04.298Z,4.53
2022-11-07T02:10:31.356Z,3.92
2022-11-07T02:12:58.274Z,4.60
2022-11-07T02:15:26.297Z,4.07
2022-11-07T02:17:53.364Z,3.65
2022-11-07T02:20:20.251Z,4.32
2022-11-07T02:22:49.920Z,3.92
2022-11-07T02:25:17.807Z,3.75
2022-11-07T02:27:44.878Z,4.07
2022-11-07T02:30:22.032Z,3.90
2022-11-07T02:32:48.942Z,3.92
2022-11-07T02:35:40.382Z,4.05
2022-11-07T02:38:14.243Z,3.88
2022-11-07T02:40:41.521Z,4.20
2022-11-07T02:43:09.512Z,3.58
2022-11-07T02:45:37.485Z,4.25
2022-11-07T02:48:04.643Z,3.70
2022-11-07T02:50:31.987Z,3.70
2022-11-07T02:52:58.919Z,3.60
2022-11-07T02:55:26.035Z,3.40
2022-11-07T02:57:52.967Z,3.88
2022-11-07T03:00:20.188Z,3.67
2022-11-07T03:02:47.544Z,3.97
2022-11-07T03:05:18.907Z,3.45
2022-11-07T03:07:46.967Z,3.65
2022-11-07T03:10:14.687Z,3.80
2022-11-07T03:12:41.593Z,3.63
2022-11-07T03:15:09.312Z,4.30
2022-11-07T03:17:36.203Z,3.80
2022-11-07T03:20:03.994Z,3.85
2022-11-07T03:22:30.913Z,3.28
2022-11-07T03:24:57.770Z,3.65
2022-11-07T03:27:24.706Z,3.63
2022-11-07T03:29:51.593Z,3.50
2022-11-07T03:32:18.530Z,3.38
2022-11-07T03:34:45.624Z,4.15
2022-11-07T03:37:12.733Z,3.33
2022-11-07T03:39:39.624Z,4.10
2022-11-07T03:42:06.515Z,4.45
2022-11-07T03:44:33.420Z,4.10
2022-11-07T03:47:00.387Z,4.55
2022-11-07T03:49:27.360Z,3.60
2022-11-07T03:51:54.335Z,3.88
2022-11-07T03:54:21.206Z,4.00
2022-11-07T03:56:48.130Z,3.95
2022-11-07T03:59:15.054Z,4.03
2022-11-07T04:01:42.013Z,4.47
2022-11-07T04:04:09.311Z,4.25
2022-11-07T04:06:36.178Z,4.45
2022-11-07T04:09:03.329Z,4.07
2022-11-07T04:11:48.718Z,5.20
2022-11-07T04:14:34.226Z,3.78
2022-11-07T04:17:26.922Z,4.72
2022-11-07T04:19:57.596Z,4.70
2022-11-07T04:22:24.750Z,4.50
2022-11-07T04:24:51.667Z,4.30
2022-11-07T04:27:37.578Z,4.07
2022-11-07T04:30:28.389Z,4.15
2022-11-07T04:32:56.559Z,4.32
2022-11-07T04:35:25.144Z,4.25
2022-11-07T04:37:52.186Z,4.30
2022-11-07T04:40:19.859Z,3.83
2022-11-07T04:42:47.061Z,4.03
2022-11-07T04:45:14.147Z,4.53
2022-11-07T04:47:41.154Z,5.07
2022-11-07T04:50:11.941Z,4.72
2022-11-07T04:52:38.871Z,4.72
2022-11-07T04:55:07.296Z,4.43
2022-11-07T04:57:34.244Z,4.65
2022-11-07T05:00:01.203Z,4.72
2022-11-07T05:02:28.232Z,4.60
2022-11-07T05:04:55.301Z,4.53
2022-11-07T05:07:22.244Z,4.82
2022-11-07T05:09:49.294Z,3.95
2022-11-07T05:12:16.684Z,4.35
2022-11-07T05:14:43.587Z,4.95
2022-11-07T05:17:13.497Z,4.47
2022-11-07T05:19:43.167Z,4.30
2022-11-07T05:22:29.372Z,4.13
2022-11-07T05:24:56.404Z,4.63
2022-11-07T05:27:23.675Z,4.13
2022-11-07T05:29:50.793Z,4.28
2022-11-07T05:32:18.114Z,4.93
2022-11-07T05:34:45.002Z,4.90
2022-11-07T05:37:12.455Z,4.32
2022-11-07T05:39:39.480Z,3.83
2022-11-07T05:42:06.468Z,4.20
2022-11-07T05:44:33.535Z,4.45
2022-11-07T05:47:01.192Z,4.40
2022-11-07T05:49:28.097Z,4.47
2022-11-07T05:51:55.171Z,4.00
2022-11-07T05:54:22.113Z,4.70
2022-11-07T05:56:49.048Z,3.90
2022-11-07T05:59:16.504Z,3.92
2022-11-07T06:01:44.796Z,3.92
2022-11-07T06:04:13.803Z,3.95
2022-11-07T06:06:40.769Z,4.25
2022-11-07T06:09:07.703Z,3.78
2022-11-07T06:11:34.920Z,4.18
2022-11-07T06:14:01.858Z,3.90
2022-11-07T06:16:28.942Z,4.32
2022-11-07T06:18:55.821Z,4.38
2022-11-07T06:21:22.763Z,4.03
2022-11-07T06:23:49.696Z,4.88
2022-11-07T06:26:16.652Z,4.63
2022-11-07T06:28:43.523Z,4.15
2022-11-07T06:31:10.428Z,4.53
2022-11-07T06:33:37.297Z,4.85
2022-11-07T06:36:08.725Z,4.30
2022-11-07T06:38:36.220Z,4.15
2022-11-07T06:41:10.956Z,4.47
2022-11-07T06:43:38.192Z,4.40
2022-11-07T06:46:07.273Z,4.95
2022-11-07T06:48:34.244Z,4.63
2022-11-07T06:51:02.371Z,3.97
2022-11-07T06:53:29.424Z,4.82
2022-11-07T06:55:56.605Z,4.40
2022-11-07T06:58:23.527Z,5.07
2022-11-07T07:00:50.470Z,4.10
2022-11-07T07:03:17.865Z,4.28
2022-11-07T07:05:45.100Z,4.40
2022-11-07T07:08:12.655Z,5.60
2022-11-07T07:10:43.766Z,4.80
2022-11-07T07:13:11.081Z,5.15
2022-11-07T07:15:50.300Z,5.03
2022-11-07T07:18:19.164Z,4.63
2022-11-07T07:20:46.925Z,5.10
2022-11-07T07:23:14.093Z,4.90
2022-11-07T07:25:41.581Z,5.07
2022-11-07T07:28:08.543Z,4.53
2022-11-07T07:30:35.417Z,4.18
2022-11-07T07:33:02.337Z,4.68
2022-11-07T07:35:29.480Z,4.68
2022-11-07T07:37:56.794Z,4.47
2022-11-07T07:40:23.706Z,4.03
2022-11-07T07:42:50.828Z,4.82
2022-11-07T07:45:17.869Z,4.38
2022-11-07T07:47:44.778Z,4.20
2022-11-07T07:50:12.478Z,4.40
2022-11-07T07:52:39.546Z,4.78
2022-11-07T07:55:09.123Z,5.00
2022-11-07T07:57:42.998Z,4.15
2022-11-07T08:00:11.445Z,3.83
2022-11-07T08:02:44.218Z,3.80
2022-11-07T08:05:14.659Z,4.07
2022-11-07T08:07:49.144Z,3.95
2022-11-07T08:10:40.277Z,4.05
2022-11-07T08:13:04.264Z,3.30
2022-11-07T08:15:31.109Z,3.60
2022-11-07T08:18:02.202Z,3.88
2022-11-07T08:20:29.303Z,4.30
2022-11-07T08:23:23.733Z,3.58
2022-11-07T08:25:58.238Z,3.47
2022-11-07T08:28:28.727Z,3.42
2022-11-07T08:31:04.901Z,3.70
2022-11-07T08:33:32.606Z,3.53
2022-11-07T08:36:00.540Z,3.70
2022-11-07T08:38:28.385Z,3.97
2022-11-07T08:40:55.358Z,3.95
2022-11-07T08:43:22.344Z,3.83
2022-11-07T08:45:49.609Z,3.35
2022-11-07T08:48:17.108Z,3.53
2022-11-07T08:50:44.419Z,3.92
2022-11-07T08:53:11.649Z,3.80
2022-11-07T08:55:38.656Z,3.83
2022-11-07T08:58:06.884Z,3.40
2022-11-07T09:00:34.615Z,3.20
2022-11-07T09:03:38.835Z,3.78
2022-11-07T09:05:56.574Z,3.63
2022-11-07T09:08:23.653Z,3.80
2022-11-07T09:10:50.762Z,3.67
2022-11-07T09:13:18.083Z,5.32
2022-11-07T09:15:50.661Z,3.25
2022-11-07T09:18:19.119Z,2.80
2022-11-07T09:20:46.037Z,2.53
2022-11-07T09:23:13.082Z,2.80
2022-11-07T09:25:40.291Z,3.03
2022-11-07T09:28:07.651Z,2.65
2022-11-07T09:30:36.357Z,3.08
2022-11-07T09:33:06.595Z,2.85
2022-11-07T09:35:33.593Z,2.72
2022-11-07T09:38:00.587Z,2.60
2022-11-07T09:40:48.176Z,2.70
2022-11-07T09:43:40.091Z,2.45
2022-11-07T09:46:12.497Z,2.92
2022-11-07T09:48:44.381Z,3.15
2022-11-07T09:51:15.531Z,2.85
2022-11-07T09:53:43.781Z,3.35
2022-11-07T09:56:11.944Z,2.83
2022-11-07T09:58:46.023Z,2.60
2022-11-07T10:01:17.704Z,2.70
2022-11-07T10:06:38.417Z,2.80
2022-11-07T10:09:28.629Z,3.00
2022-11-07T10:12:07.587Z,2.50
2022-11-07T10:15:12.165Z,3.00
2022-11-07T10:17:59.014Z,3.20
2022-11-07T10:21:36.456Z,2.90
2022-11-07T10:24:13.124Z,3.67
2022-11-07T10:26:40.733Z,2.67
2022-11-07T10:29:10.767Z,3.15
2022-11-07T10:31:40.533Z,3.08
2022-11-07T10:34:29.513Z,2.85
2022-11-07T10:36:56.456Z,2.97
2022-11-07T10:39:23.618Z,3.42
2022-11-07T10:42:01.075Z,3.67
2022-11-07T10:44:28.193Z,3.15
2022-11-07T10:46:55.174Z,4.32
2022-11-07T10:49:23.982Z,3.50
2022-11-07T10:51:51.261Z,2.80
2022-11-07T10:54:30.361Z,2.80
2022-11-07T10:57:06.234Z,2.80
2022-11-07T10:59:36.434Z,3.53
2022-11-07T11:02:11.151Z,3.38
2022-11-07T11:04:38.240Z,3.08
2022-11-07T11:07:06.578Z,2.47
2022-11-07T11:09:35.723Z,2.45
2022-11-07T11:12:06.986Z,2.95
2022-11-07T11:14:34.140Z,2.88
2022-11-07T11:17:01.076Z,2.92
2022-11-07T11:19:34.173Z,3.15
2022-11-07T11:22:03.792Z,2.75
2022-11-07T11:24:37.587Z,3.55
2022-11-07T11:27:17.276Z,2.60
2022-11-07T11:30:11.938Z,2.80
2022-11-07T11:32:49.213Z,3.13
2022-11-07T11:35:21.915Z,2.85
2022-11-07T11:37:53.607Z,3.33
2022-11-07T11:40:22.419Z,2.85
2022-11-07T11:43:04.290Z,3.53
2022-11-07T11:48:15.618Z,3.38
2022-11-07T11:50:48.586Z,3.58
2022-11-07T11:53:17.333Z,3.53
2022-11-07T11:55:55.409Z,3.70
2022-11-07T11:58:25.148Z,2.95
2022-11-07T12:01:04.583Z,2.45
2022-11-07T12:03:57.037Z,2.47
2022-11-07T12:06:46.984Z,2.33
2022-11-07T12:09:19.906Z,2.35
2022-11-07T12:11:51.527Z,2.33
2022-11-07T12:15:10.680Z,2.55
2022-11-07T12:17:42.748Z,3.03
2022-11-07T12:20:18.297Z,2.97
2022-11-07T12:23:07.005Z,2.50
2022-11-07T12:25:55.087Z,2.75
2022-11-07T12:28:44.441Z,2.67
2022-11-07T12:31:11.396Z,3.17
2022-11-07T12:33:55.466Z,3.20
2022-11-07T12:36:46.042Z,2.95
2022-11-07T12:39:47.118Z,3.05
2022-11-07T12:42:35.758Z,3.50
2022-11-07T12:45:24.804Z,3.50
2022-11-07T12:48:12.901Z,3.40
2022-11-07T12:50:43.130Z,3.50
2022-11-07T12:53:39.473Z,3.92
2022-11-07T12:56:11.945Z,3.88
2022-11-07T12:58:38.925Z,3.88
2022-11-07T13:01:05.990Z,3.88
2022-11-07T13:03:39.128Z,3.70
2022-11-07T13:06:13.708Z,3.55
2022-11-07T13:08:49.022Z,3.10
2022-11-07T13:11:21.284Z,4.13
2022-11-07T13:14:27.498Z,3.63
2022-11-07T13:17:24.308Z,3.28
2022-11-07T13:20:00.572Z,3.35
2022-11-07T13:22:35.980Z,4.00
2022-11-07T13:25:29.445Z,3.30
2022-11-07T13:27:56.427Z,3.70
2022-11-07T13:30:40.238Z,3.58
2022-11-07T13:33:23.334Z,3.33
2022-11-07T13:35:54.896Z,3.30
2022-11-07T13:38:23.587Z,3.83
2022-11-07T13:41:04.250Z,3.97
2022-11-07T13:43:58.891Z,3.50
2022-11-07T13:46:36.248Z,3.33
2022-11-07T13:49:24.871Z,3.95
2022-11-07T13:51:52.881Z,4.45
2022-11-07T13:54:28.651Z,3.53
2022-11-07T13:57:23.921Z,4.20
2022-11-07T14:00:07.318Z,3.40
2022-11-07T14:02:51.445Z,3.63
2022-11-07T14:05:18.986Z,4.22
2022-11-07T14:07:51.334Z,3.65
2022-11-07T14:10:28.265Z,3.40
2022-11-07T14:13:09.398Z,3.40
2022-11-07T14:15:36.890Z,4.40
2022-11-07T14:18:04.368Z,3.60
2022-11-07T14:20:31.351Z,4.03
2022-11-07T14:23:00.715Z,3.58
2022-11-07T14:25:35.423Z,4.40
2022-11-07T14:28:02.544Z,4.30
2022-11-07T14:30:30.033Z,3.83
2022-11-07T14:32:59.349Z,4.78
2022-11-07T14:35:32.216Z,4.68
2022-11-07T14:38:08.239Z,4.55
2022-11-07T14:40:36.176Z,4.13
2022-11-07T14:43:03.254Z,4.45
2022-11-07T14:46:05.621Z,3.80
2022-11-07T14:48:19.332Z,4.65
2022-11-07T14:50:49.097Z,4.55
2022-11-07T14:53:24.681Z,4.47
2022-11-07T14:55:53.789Z,4.50
2022-11-07T14:58:23.750Z,4.40
2022-11-07T15:00:56.139Z,4.55
2022-11-07T15:03:30.031Z,4.18
2022-11-07T15:05:57.061Z,4.10
2022-11-07T15:08:29.235Z,4.90
2022-11-07T15:11:14.389Z,4.78
2022-11-07T15:13:41.539Z,4.50
2022-11-07T15:16:18.547Z,5.25
2022-11-07T15:18:47.480Z,4.80
2022-11-07T15:21:26.694Z,4.28
2022-11-07T15:23:54.680Z,4.50
2022-11-07T15:26:23.345Z,4.35
2022-11-07T15:28:53.727Z,4.40
2022-11-07T15:31:21.786Z,4.68
2022-11-07T15:33:49.027Z,4.22
2022-11-07T15:36:18.085Z,4.25
2022-11-07T15:38:46.481Z,4.25
2022-11-07T15:41:14.120Z,5.10
2022-11-07T15:43:41.024Z,4.95
2022-11-07T15:46:46.383Z,4.20
2022-11-07T15:49:13.402Z,4.22
2022-11-07T15:51:40.396Z,4.38
2022-11-07T15:54:11.656Z,4.00
2022-11-07T15:56:39.158Z,4.43
2022-11-07T15:59:08.818Z,4.90
2022-11-07T16:01:35.953Z,4.18
2022-11-07T16:04:03.342Z,4.35
2022-11-07T16:06:30.944Z,4.30
2022-11-07T16:08:58.311Z,3.67
2022-11-07T16:11:25.258Z,4.05
2022-11-07T16:13:59.250Z,3.95
2022-11-07T16:16:36.088Z,3.33
2022-11-07T16:19:03.036Z,3.95
2022-11-07T16:21:30.043Z,4.00
2022-11-07T16:23:56.978Z,3.63
2022-11-07T16:26:28.824Z,3.65
2022-11-07T16:31:22.817Z,3.63
2022-11-07T16:33:49.857Z,4.07
2022-11-07T16:36:21.084Z,3.58
2022-11-07T16:38:48.658Z,3.83
2022-11-07T16:41:17.742Z,2.95
2022-11-07T16:43:45.440Z,3.88
2022-11-07T16:46:18.842Z,3.50
2022-11-07T16:48:50.321Z,3.30
2022-11-07T16:51:23.582Z,3.55
2022-11-07T16:54:02.328Z,3.20
2022-11-07T16:56:30.498Z,3.30
2022-11-07T16:58:58.241Z,3.25
2022-11-07T17:01:25.913Z,3.70
2022-11-07T17:03:53.374Z,3.25
2022-11-07T17:06:34.180Z,3.38
2022-11-07T17:09:10.359Z,3.33
2022-11-07T17:11:40.326Z,3.42
2022-11-07T17:14:07.238Z,3.50
2022-11-07T17:16:34.931Z,3.90
2022-11-07T17:19:02.298Z,2.95
2022-11-07T17:21:31.043Z,3.47
2022-11-07T17:23:59.159Z,3.33
2022-11-07T17:26:36.971Z,3.53
2022-11-07T17:29:07.677Z,3.58
2022-11-07T17:31:34.922Z,3.58
2022-11-07T17:34:01.800Z,3.63
2022-11-07T17:36:47.873Z,4.05
2022-11-07T17:39:16.657Z,4.18
2022-11-07T17:41:44.477Z,4.72
2022-11-07T17:44:11.450Z,4.30
2022-11-07T17:46:42.265Z,4.22
2022-11-07T17:49:10.886Z,3.80
2022-11-07T17:51:37.991Z,4.20
2022-11-07T17:54:05.151Z,4.07
2022-11-07T17:56:32.452Z,4.00
2022-11-07T17:59:01.306Z,4.15
2022-11-07T18:01:30.459Z,4.07
2022-11-07T18:03:58.045Z,4.05
2022-11-07T18:06:25.244Z,3.90
2022-11-07T18:08:53.357Z,3.72
2022-11-07T18:11:21.510Z,4.05
2022-11-07T18:13:51.961Z,4.22
2022-11-07T18:16:20.786Z,4.80
2022-11-07T18:18:47.736Z,4.32
2022-11-07T18:21:14.833Z,4.65
2022-11-07T18:23:42.104Z,4.50
2022-11-07T18:26:11.117Z,4.28
2022-11-07T18:28:38.898Z,4.25
2022-11-07T18:31:10.746Z,4.50
2022-11-07T18:33:37.767Z,4.47
2022-11-07T18:36:06.704Z,4.85
2022-11-07T18:38:33.602Z,5.22
2022-11-07T18:41:02.732Z,4.97
2022-11-07T18:43:29.855Z,4.43
2022-11-07T18:45:58.536Z,4.25
2022-11-07T18:48:25.906Z,4.35
2022-11-07T18:50:52.808Z,5.07
2022-11-07T18:53:20.432Z,4.13
2022-11-07T18:55:59.195Z,4.65
2022-11-07T18:58:28.190Z,4.30
2022-11-07T19:00:55.483Z,4.65
2022-11-07T19:03:23.632Z,3.75
2022-11-07T19:05:53.543Z,3.83
2022-11-07T19:08:21.891Z,3.90
2022-11-07T19:10:52.105Z,3.60
2022-11-07T19:13:21.211Z,4.05
2022-11-07T19:15:49.389Z,3.53
2022-11-07T19:18:18.412Z,3.70
2022-11-07T19:20:46.181Z,3.83
2022-11-07T19:23:13.651Z,3.72
2022-11-07T19:25:41.273Z,3.70
2022-11-07T19:28:08.470Z,4.15
2022-11-07T19:30:36.051Z,3.97
2022-11-07T19:33:03.641Z,3.50
2022-11-07T19:35:31.594Z,4.10
2022-11-07T19:37:58.845Z,3.58
2022-11-07T19:40:26.221Z,4.10
2022-11-07T19:42:53.328Z,3.53
2022-11-07T19:45:20.726Z,3.65
2022-11-07T19:47:47.902Z,3.92
2022-11-07T19:50:15.752Z,3.72
2022-11-07T19:52:42.788Z,4.03
2022-11-07T19:55:09.971Z,4.38
2022-11-07T19:57:36.888Z,4.00
2022-11-07T20:00:05.895Z,3.47
2022-11-07T20:02:36.406Z,3.80
2022-11-07T20:05:06.547Z,4.25
2022-11-07T20:07:33.888Z,4.10
2022-11-07T20:10:01.855Z,3.53
2022-11-07T20:12:28.780Z,3.72
2022-11-07T20:14:55.760Z,3.78
2022-11-07T20:17:22.713Z,3.60
2022-11-07T20:19:49.898Z,3.83
2022-11-07T20:22:16.810Z,3.45
2022-11-07T20:24:43.749Z,3.58
2022-11-07T20:27:10.701Z,3.65
2022-11-07T20:29:37.595Z,3.97
2022-11-07T20:32:05.057Z,4.00
2022-11-07T20:34:32.036Z,3.75
2022-11-07T20:36:59.126Z,4.10
2022-11-07T20:39:26.491Z,3.67
2022-11-07T20:41:54.026Z,3.42
2022-11-07T20:44:23.072Z,3.45
2022-11-07T20:46:51.791Z,3.53
2022-11-07T20:49:19.436Z,3.22
2022-11-07T20:51:46.441Z,3.25
2022-11-07T20:54:14.601Z,3.70
2022-11-07T20:56:41.896Z,3.38
2022-11-07T20:59:09.716Z,4.13
2022-11-07T21:01:37.422Z,3.90
2022-11-07T21:04:09.214Z,3.03
2022-11-07T21:06:36.149Z,3.70
2022-11-07T21:09:03.313Z,3.30
2022-11-07T21:11:30.701Z,3.15
2022-11-07T21:13:57.839Z,3.33
2022-11-07T21:16:25.159Z,3.45
2022-11-07T21:18:52.371Z,3.33
2022-11-07T21:21:24.226Z,3.10
2022-11-07T21:26:23.888Z,3.63
2022-11-07T21:28:50.887Z,3.38
2022-11-07T21:31:21.908Z,3.35
2022-11-07T21:33:48.880Z,3.33
2022-11-07T21:36:18.138Z,3.35
2022-11-07T21:38:46.852Z,3.38
2022-11-07T21:41:14.739Z,3.35
2022-11-07T21:43:41.765Z,3.35
2022-11-07T21:46:10.580Z,2.97
2022-11-07T21:48:37.837Z,3.42
2022-11-07T21:51:09.171Z,3.03
2022-11-07T21:53:37.951Z,3.50
2022-11-07T21:56:06.329Z,3.38
2022-11-07T21:58:33.636Z,3.17
2022-11-07T22:01:05.153Z,3.33
2022-11-07T22:04:03.648Z,3.15
2022-11-07T22:06:20.340Z,3.45
2022-11-07T22:08:48.309Z,2.63
2022-11-07T22:11:16.033Z,2.92
2022-11-07T22:13:43.229Z,3.40
2022-11-07T22:16:14.610Z,3.58
2022-11-07T22:18:41.836Z,3.50
2022-11-07T22:21:09.863Z,3.05
2022-11-07T22:23:37.911Z,3.33
2022-11-07T22:26:11.951Z,3.25
2022-11-07T22:28:44.390Z,2.72
2022-11-07T22:31:20.839Z,3.22
2022-11-07T22:33:48.073Z,2.90
2022-11-07T22:36:15.301Z,3.05
2022-11-07T22:38:42.415Z,2.92
2022-11-07T22:41:14.383Z,3.67
2022-11-07T22:43:41.444Z,3.22
2022-11-07T22:46:10.908Z,3.00
2022-11-07T22:48:38.107Z,3.15
2022-11-07T22:51:05.967Z,2.72
2022-11-07T22:53:33.485Z,2.55
2022-11-07T22:56:10.012Z,2.40
2022-11-07T22:58:37.268Z,2.40
2022-11-07T23:01:04.978Z,2.47
2022-11-07T23:03:32.816Z,2.80
2022-11-07T23:06:05.922Z,3.13
2022-11-07T23:08:36.293Z,2.95
2022-11-07T23:11:44.090Z,2.53
2022-11-07T23:13:53.529Z,2.70
2022-11-07T23:16:43.639Z,2.42
2022-11-07T23:19:12.916Z,3.20
2022-11-07T23:21:39.995Z,2.90
2022-11-07T23:24:07.122Z,2.53
2022-11-07T23:26:34.386Z,2.88
2022-11-07T23:29:11.447Z,2.40
2022-11-07T23:31:39.782Z,2.70
2022-11-07T23:34:06.862Z,2.72
2022-11-07T23:36:33.798Z,2.40
2022-11-07T23:39:07.577Z,2.95
2022-11-07T23:41:34.552Z,2.75
2022-11-07T23:44:01.967Z,2.72
2022-11-07T23:46:47.773Z,2.53
2022-11-07T23:49:33.161Z,2.97
2022-11-07T23:52:00.188Z,2.63
2022-11-07T23:54:45.710Z,2.67
2022-11-07T23:57:12.724Z,2.72
2022-11-07T23:59:58.611Z,2.72
